Time;durP1;ratioP1;P1;durP2;ratioP2;P2;SDS_P1;SDS_P2;PMS_P1;PMS_P2;Temp;Humidity;BMP_temperature;BMP_pressure;BME280_temperature;BME280_humidity;BME280_pressure;Samples;Min_cycle;Max_cycle;Signal;HPM_P1;HPM_P2
2024/04/24 00:05:22;;;;;;;0.93;0.10;;;;;;;;;;22838796;26;20021;-52
2024/04/24 00:15:25;;;;;;;0.40;0.10;;;;;;;;;;22780857;25;20043;-49
2024/04/24 00:25:27;;;;;;;0.65;0.20;;;;;;;;;;22823825;26;20005;-46
2024/04/24 00:35:28;;;;;;;0.43;0.10;;;;;;;;;;22778727;26;20028;-49
2024/04/24 00:45:30;;;;;;;1.65;0.20;;;;;;;;;;22833508;25;20022;-48
2024/04/24 00:55:33;;;;;;;1.25;0.15;;;;;;;;;;22853542;26;20005;-48
2024/04/24 01:05:35;;;;;;;0.25;0.10;;;;;;;;;;22830752;25;20017;-47
2024/04/24 01:15:37;;;;;;;0.52;0.13;;;;;;;;;;22790285;25;20439;-46
2024/04/24 01:25:43;;;;;;;1.83;0.17;;;;;;;;;;22820588;25;20016;-46
2024/04/24 01:35:45;;;;;;;2.15;0.28;;;;;;;;;;22780525;26;20312;-46
2024/04/24 01:45:59;;;;;;;0.95;0.20;;;;;;;;;;22748159;26;20024;-49
2024/04/24 01:56:02;;;;;;;0.52;0.17;;;;;;;;;;22849789;26;20005;-46
2024/04/24 02:06:03;;;;;;;0.93;0.15;;;;;;;;;;22851548;26;20016;-48
2024/04/24 02:16:09;;;;;;;0.52;0.20;;;;;;;;;;22865029;26;20080;-47
2024/04/24 02:26:10;;;;;;;2.72;0.35;;;;;;;;;;22864144;25;20005;-45
2024/04/24 02:36:12;;;;;;;1.08;0.20;;;;;;;;;;22804408;25;20005;-46
2024/04/24 02:46:13;;;;;;;2.83;0.30;;;;;;;;;;22846645;25;20013;-46
2024/04/24 02:56:15;;;;;;;0.52;0.20;;;;;;;;;;22861930;26;20009;-49
2024/04/24 03:06:17;;;;;;;0.47;0.20;;;;;;;;;;22847521;25;20018;-49
2024/04/24 03:16:57;;;;;;;0.50;0.20;;;;;;;;;;22771632;26;20428;-48
2024/04/24 03:26:58;;;;;;;2.38;0.20;;;;;;;;;;22815619;26;20017;-48
2024/04/24 03:37:00;;;;;;;1.17;0.20;;;;;;;;;;22781964;26;20145;-49
2024/04/24 03:47:01;;;;;;;7.07;0.30;;;;;;;;;;22720514;26;20081;-47
2024/04/24 03:57:03;;;;;;;0.50;0.20;;;;;;;;;;22750287;25;20009;-47
2024/04/24 04:07:05;;;;;;;2.35;0.25;;;;;;;;;;22858047;26;20001;-49
2024/04/24 04:17:07;;;;;;;1.42;0.30;;;;;;;;;;22854266;26;20846;-46
2024/04/24 04:27:09;;;;;;;0.57;0.20;;;;;;;;;;22817285;26;20428;-46
2024/04/24 04:37:11;;;;;;;2.70;0.63;;;;;;;;;;22809607;26;20012;-46
2024/04/24 04:47:13;;;;;;;1.75;0.90;;;;;;;;;;22824523;26;20010;-48
2024/04/24 04:57:15;;;;;;;1.90;0.40;;;;;;;;;;22857143;26;20009;-46
2024/04/24 05:07:16;;;;;;;3.35;0.50;;;;;;;;;;22840986;26;20010;-45
2024/04/24 05:17:18;;;;;;;3.85;0.30;;;;;;;;;;22713900;26;20038;-45
2024/04/24 05:37:40;;;;;;;1.90;0.52;;;;;;;;;;22804661;26;20175;-46
2024/04/24 05:47:42;;;;;;;2.53;0.70;;;;;;;;;;22766808;25;20007;-46
2024/04/24 05:57:43;;;;;;;2.10;0.77;;;;;;;;;;22760858;26;20551;-46
2024/04/24 06:07:46;;;;;;;2.67;0.88;;;;;;;;;;22719120;25;20013;-46
2024/04/24 06:17:48;;;;;;;3.22;1.02;;;;;;;;;;22818100;25;20461;-46
2024/04/24 06:27:55;;;;;;;2.78;1.00;;;;;;;;;;22850304;25;20035;-49
2024/04/24 06:37:58;;;;;;;5.05;1.15;;;;;;;;;;22794100;26;20014;-49
2024/04/24 06:48:00;;;;;;;1.83;0.80;;;;;;;;;;22787480;26;20001;-49
2024/04/24 06:58:01;;;;;;;3.10;1.10;;;;;;;;;;22793898;26;20010;-49
2024/04/24 07:19:01;;;;;;;1.73;0.75;;;;;;;;;;22860257;25;20001;-47
2024/04/24 07:29:03;;;;;;;1.95;0.70;;;;;;;;;;22830586;26;20069;-47
2024/04/24 07:39:05;;;;;;;2.60;0.90;;;;;;;;;;22862607;26;20001;-49
2024/04/24 07:49:09;;;;;;;3.22;1.10;;;;;;;;;;22861707;26;20017;-49
2024/04/24 07:59:11;;;;;;;4.38;0.80;;;;;;;;;;22851916;26;20006;-48
2024/04/24 08:19:55;;;;;;;2.85;0.85;;;;;;;;;;22708107;26;20009;-50
2024/04/24 08:29:56;;;;;;;4.45;0.98;;;;;;;;;;22755411;26;20016;-48
2024/04/24 08:51:01;;;;;;;2.85;0.70;;;;;;;;;;22857219;26;20013;-52
2024/04/24 09:01:08;;;;;;;5.38;0.90;;;;;;;;;;22861335;26;20037;-52
2024/04/24 09:11:10;;;;;;;4.97;1.95;;;;;;;;;;22856911;25;20001;-54
2024/04/24 09:21:13;;;;;;;4.68;1.63;;;;;;;;;;22827750;26;20041;-53
2024/04/24 09:31:16;;;;;;;3.65;0.90;;;;;;;;;;22856483;25;20002;-51
2024/04/24 09:41:18;;;;;;;5.75;1.20;;;;;;;;;;22817983;26;20401;-50
2024/04/24 09:51:20;;;;;;;3.30;1.05;;;;;;;;;;22856257;26;20001;-49
2024/04/24 10:01:56;;;;;;;5.60;1.45;;;;;;;;;;22763718;26;20412;-49
2024/04/24 10:12:02;;;;;;;5.53;1.52;;;;;;;;;;22823341;26;21581;-48
2024/04/24 10:22:04;;;;;;;3.97;1.45;;;;;;;;;;22783138;26;20144;-50
2024/04/24 10:43:05;;;;;;;5.82;1.83;;;;;;;;;;22740892;26;20001;-53
2024/04/24 10:53:08;;;;;;;4.43;1.88;;;;;;;;;;22822706;26;20008;-54
2024/04/24 11:03:09;;;;;;;4.80;2.22;;;;;;;;;;22867332;26;20009;-52
2024/04/24 11:13:13;;;;;;;5.32;1.83;;;;;;;;;;22864652;25;20041;-51
2024/04/24 11:44:52;;;;;;;5.70;2.05;;;;;;;;;;22864466;26;20009;-54
2024/04/24 11:54:54;;;;;;;5.03;2.78;;;;;;;;;;22866201;25;20068;-55
2024/04/24 12:04:57;;;;;;;4.13;2.30;;;;;;;;;;22791050;25;20034;-54
2024/04/24 12:14:59;;;;;;;8.25;2.00;;;;;;;;;;22861275;26;20385;-54
2024/04/24 12:25:01;;;;;;;7.25;1.90;;;;;;;;;;22861680;26;20005;-49
2024/04/24 12:35:04;;;;;;;5.55;2.38;;;;;;;;;;22862233;26;20352;-50
2024/04/24 12:45:08;;;;;;;6.97;2.17;;;;;;;;;;22830897;26;20081;-51
2024/04/24 12:55:10;;;;;;;4.60;1.80;;;;;;;;;;22860822;25;20002;-50
2024/04/24 13:26:53;;;;;;;4.53;1.27;;;;;;;;;;22707769;26;20006;-50
2024/04/24 13:36:56;;;;;;;2.95;1.23;;;;;;;;;;22773026;25;20021;-50
2024/04/24 13:46:59;;;;;;;3.17;0.40;;;;;;;;;;22858856;26;20125;-49
2024/04/24 13:57:01;;;;;;;3.00;0.30;;;;;;;;;;22826491;26;20016;-50
2024/04/24 14:07:04;;;;;;;1.52;0.50;;;;;;;;;;22701886;25;20428;-50
2024/04/24 14:17:06;;;;;;;2.75;0.68;;;;;;;;;;22801315;25;20013;-53
2024/04/24 14:27:52;;;;;;;1.40;0.40;;;;;;;;;;22826876;25;20035;-54
2024/04/24 14:37:54;;;;;;;4.75;0.77;;;;;;;;;;22840623;26;20024;-50
